Time;durP1;ratioP1;P1;durP2;ratioP2;P2;SDS_P1;SDS_P2;PMS_P1;PMS_P2;Temp;Humidity;BMP_temperature;BMP_pressure;BME280_temperature;BME280_humidity;BME280_pressure;Samples;Min_cycle;Max_cycle;Signal;HPM_P1;HPM_P2
2021/04/17 00:01:29;;;;;;;7.90;2.97;;;1.40;78.60;;;;;;5001525;28;20029;-67
2021/04/17 00:03:56;;;;;;;7.57;3.10;;;1.40;78.80;;;;;;5005285;28;20037;-67
2021/04/17 00:06:22;;;;;;;9.10;3.28;;;1.40;78.90;;;;;;5007462;28;20133;-66
2021/04/17 00:08:47;;;;;;;7.38;3.33;;;1.40;78.70;;;;;;5005906;28;20116;-66
2021/04/17 00:11:14;;;;;;;7.78;3.03;;;1.40;79.00;;;;;;5006268;28;20037;-66
2021/04/17 00:13:40;;;;;;;6.13;2.97;;;1.30;79.10;;;;;;5005098;28;20014;-68
2021/04/17 00:16:06;;;;;;;7.43;3.25;;;1.30;79.20;;;;;;4990278;28;20029;-67
2021/04/17 00:18:31;;;;;;;9.80;3.40;;;1.20;79.00;;;;;;5005674;28;20032;-67
2021/04/17 00:20:57;;;;;;;10.38;3.45;;;1.20;79.30;;;;;;5005649;28;20060;-67
2021/04/17 00:23:22;;;;;;;7.15;3.72;;;1.10;79.00;;;;;;5005050;28;20029;-67
2021/04/17 00:25:48;;;;;;;8.82;3.45;;;1.10;79.20;;;;;;5002920;28;20033;-68
2021/04/17 00:28:13;;;;;;;7.65;3.35;;;1.00;79.20;;;;;;5007656;28;20540;-66
2021/04/17 00:30:39;;;;;;;7.07;3.47;;;1.00;79.80;;;;;;5007678;28;20025;-66
2021/04/17 00:33:04;;;;;;;9.70;3.28;;;1.00;80.40;;;;;;5007644;28;20040;-68
2021/04/17 00:35:30;;;;;;;7.95;3.20;;;0.90;80.30;;;;;;5003838;28;20033;-67
2021/04/17 00:37:56;;;;;;;7.20;3.10;;;0.90;80.40;;;;;;5008135;28;20113;-67
2021/04/17 00:40:21;;;;;;;8.88;2.97;;;0.90;80.50;;;;;;5005284;28;20084;-66
2021/04/17 00:42:47;;;;;;;6.32;2.72;;;0.80;81.00;;;;;;5006949;28;20038;-67
2021/04/17 00:45:13;;;;;;;6.38;3.03;;;0.80;81.50;;;;;;5004721;28;20022;-67
2021/04/17 00:47:41;;;;;;;5.80;2.92;;;0.80;81.50;;;;;;5006779;28;20034;-67
2021/04/17 00:50:07;;;;;;;8.35;3.22;;;0.80;81.50;;;;;;4999776;28;20594;-68
2021/04/17 00:52:33;;;;;;;7.38;3.60;;;0.80;81.70;;;;;;5004282;28;20038;-66
2021/04/17 00:54:58;;;;;;;6.65;2.70;;;0.90;81.80;;;;;;5004585;28;20038;-66
2021/04/17 00:57:24;;;;;;;8.65;3.05;;;0.80;81.40;;;;;;5004401;28;20411;-67
2021/04/17 00:59:50;;;;;;;6.82;3.08;;;0.90;81.60;;;;;;5006039;28;20029;-68
2021/04/17 01:02:32;;;;;;;9.48;3.22;;;0.90;81.50;;;;;;5009858;28;20037;-67
2021/04/17 01:04:59;;;;;;;10.38;3.38;;;0.80;81.50;;;;;;5006913;28;20105;-68
2021/04/17 01:07:37;;;;;;;6.78;3.22;;;0.80;81.70;;;;;;5006072;28;20482;-65
2021/04/17 01:10:24;;;;;;;12.18;3.30;;;0.90;81.80;;;;;;5007144;28;20030;-68
2021/04/17 01:12:55;;;;;;;7.40;2.92;;;0.80;81.60;;;;;;5008298;28;20033;-69
2021/04/17 01:15:22;;;;;;;10.50;4.13;;;0.80;81.80;;;;;;5007377;28;20029;-68
2021/04/17 01:17:52;;;;;;;8.27;3.20;;;1.00;81.80;;;;;;5007328;28;20046;-66
2021/04/17 01:20:20;;;;;;;6.65;3.20;;;1.00;81.30;;;;;;5005355;28;20385;-66
2021/04/17 01:23:04;;;;;;;7.82;3.10;;;1.10;81.90;;;;;;5006171;28;20384;-69
2021/04/17 01:25:42;;;;;;;8.05;3.25;;;1.20;81.50;;;;;;5006524;28;20769;-67
2021/04/17 01:28:08;;;;;;;9.27;3.10;;;1.30;80.60;;;;;;5005873;28;20627;-67
2021/04/17 01:30:34;;;;;;;7.57;3.33;;;1.40;81.00;;;;;;5006805;28;20053;-68
2021/04/17 01:32:59;;;;;;;7.38;3.47;;;1.50;81.30;;;;;;5008732;28;20026;-66
2021/04/17 01:35:25;;;;;;;9.18;3.72;;;1.60;80.70;;;;;;5006844;28;20029;-68
2021/04/17 01:37:51;;;;;;;7.32;3.13;;;1.70;80.90;;;;;;5005489;28;20029;-69
2021/04/17 01:40:19;;;;;;;9.43;3.13;;;1.80;80.90;;;;;;5006618;28;20129;-67
2021/04/17 01:42:45;;;;;;;8.80;3.40;;;1.90;81.00;;;;;;5008473;28;20044;-67
2021/04/17 01:45:17;;;;;;;9.00;3.17;;;2.10;80.70;;;;;;5006144;28;20037;-68
2021/04/17 01:47:43;;;;;;;5.30;2.75;;;2.10;80.40;;;;;;5003795;28;20539;-66
2021/04/17 01:50:10;;;;;;;5.60;2.70;;;2.20;80.50;;;;;;5007131;28;20060;-67
2021/04/17 01:52:37;;;;;;;8.35;3.50;;;2.20;80.30;;;;;;5005726;28;20471;-67
2021/04/17 01:55:03;;;;;;;9.27;2.65;;;2.30;79.20;;;;;;5002324;28;20396;-67
2021/04/17 01:57:30;;;;;;;5.80;2.88;;;2.30;79.40;;;;;;5005929;28;20042;-67
2021/04/17 01:59:56;;;;;;;7.43;2.97;;;2.30;79.20;;;;;;5000502;28;20051;-67
2021/04/17 02:02:22;;;;;;;7.28;2.67;;;2.30;78.80;;;;;;5004665;28;20494;-66
2021/04/17 02:04:48;;;;;;;5.43;2.60;;;2.30;79.10;;;;;;5006658;28;20034;-68
2021/04/17 02:07:14;;;;;;;6.78;3.03;;;2.30;79.00;;;;;;5007090;28;20142;-66
2021/04/17 02:09:40;;;;;;;8.13;3.35;;;2.20;79.10;;;;;;5006506;28;20073;-67
2021/04/17 02:12:06;;;;;;;6.50;3.03;;;2.10;80.00;;;;;;5007507;28;20033;-66
2021/04/17 02:14:32;;;;;;;10.13;3.90;;;2.10;79.70;;;;;;5007353;28;20405;-67
2021/04/17 02:17:17;;;;;;;6.82;3.22;;;2.00;80.00;;;;;;5010458;28;20029;-66
2021/04/17 02:19:54;;;;;;;6.45;2.88;;;1.90;80.30;;;;;;5001523;28;20117;-67
2021/04/17 02:22:22;;;;;;;6.43;3.10;;;1.80;80.80;;;;;;5006268;28;20026;-67
2021/04/17 02:24:49;;;;;;;6.13;3.03;;;1.80;80.90;;;;;;5006432;28;20576;-66
2021/04/17 02:27:15;;;;;;;8.88;3.50;;;1.80;80.60;;;;;;5003058;28;20124;-66
2021/04/17 02:29:40;;;;;;;7.22;3.63;;;1.80;81.00;;;;;;5004559;28;20101;-65
2021/04/17 02:32:14;;;;;;;9.55;3.08;;;1.80;81.00;;;;;;5007908;28;20429;-65
2021/04/17 02:34:41;;;;;;;8.75;3.63;;;2.00;81.50;;;;;;5001473;28;20059;-68
2021/04/17 02:37:06;;;;;;;6.50;3.10;;;2.10;81.40;;;;;;5006048;28;20030;-65
2021/04/17 02:39:32;;;;;;;8.73;3.25;;;2.10;81.50;;;;;;5005130;28;20091;-67
2021/04/17 02:42:01;;;;;;;6.75;3.03;;;2.20;80.60;;;;;;5006963;28;20814;-66
2021/04/17 02:44:26;;;;;;;8.15;2.85;;;2.30;80.40;;;;;;5005529;28;20050;-67
2021/04/17 02:46:52;;;;;;;9.30;3.30;;;2.30;80.90;;;;;;5007449;28;20052;-65
2021/04/17 02:49:17;;;;;;;7.70;3.55;;;2.50;79.70;;;;;;5004634;28;20034;-66
2021/04/17 02:51:43;;;;;;;7.82;3.25;;;2.60;79.50;;;;;;5005278;28;20038;-66
2021/04/17 02:54:10;;;;;;;7.88;3.45;;;2.70;79.20;;;;;;5006270;28;20033;-67
2021/04/17 02:56:35;;;;;;;6.93;3.03;;;2.80;79.00;;;;;;5006571;28;20137;-66
2021/04/17 02:59:01;;;;;;;6.43;3.00;;;2.90;79.20;;;;;;5001835;28;20113;-69
2021/04/17 03:01:27;;;;;;;9.55;3.65;;;2.90;78.60;;;;;;5007190;28;20029;-66
2021/04/17 03:03:53;;;;;;;10.82;3.42;;;3.00;78.00;;;;;;5005514;28;20033;-66
2021/04/17 03:06:19;;;;;;;7.60;3.20;;;3.00;78.30;;;;;;5006342;28;20057;-66
2021/04/17 03:08:44;;;;;;;10.25;3.33;;;3.00;78.10;;;;;;5001038;28;20037;-67
2021/04/17 03:11:10;;;;;;;8.43;3.08;;;3.10;77.80;;;;;;5003055;28;20127;-66
2021/04/17 03:13:35;;;;;;;8.27;3.50;;;3.10;77.70;;;;;;5003919;28;20030;-66
2021/04/17 03:16:01;;;;;;;7.25;3.50;;;3.10;77.90;;;;;;5006657;28;20048;-66
2021/04/17 03:18:27;;;;;;;6.53;3.05;;;3.10;77.60;;;;;;5003841;28;20061;-67
2021/04/17 03:20:52;;;;;;;7.10;3.08;;;3.20;77.50;;;;;;5007083;28;20110;-66
2021/04/17 03:23:18;;;;;;;9.05;3.92;;;3.20;77.60;;;;;;5003637;28;20030;-66
2021/04/17 03:25:43;;;;;;;7.50;3.67;;;3.20;77.60;;;;;;5006131;28;20064;-66
2021/04/17 03:28:09;;;;;;;6.15;3.08;;;3.20;77.50;;;;;;5004002;28;20026;-68
2021/04/17 03:30:35;;;;;;;8.38;3.70;;;3.20;77.00;;;;;;5005591;28;20112;-66
2021/04/17 03:33:02;;;;;;;6.90;3.30;;;3.20;77.00;;;;;;5004994;28;20521;-68
2021/04/17 03:35:30;;;;;;;7.10;3.25;;;3.20;77.20;;;;;;5005850;28;20022;-66
2021/04/17 03:37:56;;;;;;;6.78;3.33;;;3.20;76.70;;;;;;5002812;28;20037;-66
2021/04/17 03:40:22;;;;;;;6.38;3.05;;;3.30;76.70;;;;;;5006750;28;20032;-66
2021/04/17 03:42:48;;;;;;;12.27;3.80;;;3.30;77.60;;;;;;5005164;28;20498;-66
2021/04/17 03:45:14;;;;;;;7.20;3.42;;;3.20;77.90;;;;;;5005840;28;20497;-65
2021/04/17 03:47:40;;;;;;;10.75;3.55;;;3.20;77.70;;;;;;5004349;28;20040;-66
2021/04/17 03:50:08;;;;;;;6.78;3.20;;;3.20;77.80;;;;;;5004505;28;20029;-66
2021/04/17 03:52:35;;;;;;;10.07;3.33;;;3.20;77.60;;;;;;5003440;28;20100;-66
2021/04/17 03:55:01;;;;;;;6.30;3.80;;;3.20;77.30;;;;;;5004596;28;20041;-65
2021/04/17 03:57:26;;;;;;;5.55;2.90;;;3.20;77.30;;;;;;5004658;28;20103;-66
2021/04/17 03:59:52;;;;;;;7.97;2.95;;;3.30;77.50;;;;;;5003350;28;20029;-67
2021/04/17 04:02:18;;;;;;;7.20;3.15;;;3.30;78.10;;;;;;5006370;28;20030;-67
2021/04/17 04:04:43;;;;;;;8.70;3.33;;;3.30;78.10;;;;;;5004085;28;20030;-67
2021/04/17 04:07:09;;;;;;;8.82;3.30;;;3.20;78.00;;;;;;5005438;28;20066;-67
2021/04/17 04:09:35;;;;;;;9.60;3.30;;;3.20;79.00;;;;;;5002363;28;20044;-66
2021/04/17 04:12:00;;;;;;;7.00;2.88;;;3.20;78.80;;;;;;5006383;28;20030;-67
2021/04/17 04:14:26;;;;;;;10.20;3.17;;;3.20;78.90;;;;;;5005653;28;20033;-66
2021/04/17 04:16:52;;;;;;;6.05;3.10;;;3.20;78.10;;;;;;5004995;28;20053;-66
2021/04/17 04:19:17;;;;;;;7.65;3.47;;;3.10;77.90;;;;;;5007063;28;20049;-66
2021/04/17 04:21:43;;;;;;;10.52;3.53;;;3.10;78.50;;;;;;5007234;28;20057;-66
2021/04/17 04:24:09;;;;;;;6.65;3.58;;;3.10;78.40;;;;;;5008605;28;20057;-67
2021/04/17 04:26:36;;;;;;;9.73;3.03;;;3.00;78.70;;;;;;5005090;28;20030;-70
2021/04/17 04:29:02;;;;;;;6.90;2.88;;;3.10;78.60;;;;;;5006603;28;20037;-66
2021/04/17 04:31:28;;;;;;;7.80;3.67;;;3.10;78.60;;;;;;5010059;28;20029;-65
2021/04/17 04:33:53;;;;;;;5.35;3.38;;;3.20;78.80;;;;;;5007368;28;20022;-67
2021/04/17 04:36:19;;;;;;;9.05;3.38;;;3.30;78.20;;;;;;5009071;28;20471;-68
2021/04/17 04:38:44;;;;;;;7.38;3.28;;;3.30;77.70;;;;;;5009149;28;20029;-67
2021/04/17 04:41:10;;;;;;;6.25;3.25;;;3.40;77.30;;;;;;5007680;28;20034;-65
2021/04/17 04:43:36;;;;;;;9.00;3.42;;;3.40;77.10;;;;;;5005063;28;20441;-66
2021/04/17 04:46:01;;;;;;;8.43;3.80;;;3.40;77.20;;;;;;5007382;28;20034;-67
2021/04/17 04:48:27;;;;;;;12.50;3.88;;;3.40;77.10;;;;;;5006065;28;20053;-67
2021/04/17 04:50:52;;;;;;;6.43;3.85;;;3.40;77.50;;;;;;5007184;28;20106;-67
2021/04/17 04:53:19;;;;;;;7.28;3.55;;;3.30;77.70;;;;;;5007664;28;20034;-66
2021/04/17 04:55:44;;;;;;;7.85;3.30;;;3.30;77.80;;;;;;5008724;28;20426;-68
2021/04/17 04:58:10;;;;;;;7.78;3.10;;;3.30;77.70;;;;;;5004499;28;20046;-67
2021/04/17 05:00:36;;;;;;;11.25;3.63;;;3.30;78.10;;;;;;5003809;28;20461;-65
2021/04/17 05:03:01;;;;;;;6.05;3.03;;;3.30;77.90;;;;;;5008788;28;20087;-68
2021/04/17 05:05:27;;;;;;;6.30;3.42;;;3.30;77.90;;;;;;5008185;28;20115;-66
2021/04/17 05:07:53;;;;;;;7.38;3.40;;;3.30;77.90;;;;;;5006420;28;20036;-69
2021/04/17 05:10:19;;;;;;;6.85;3.03;;;3.30;77.90;;;;;;5007090;28;20029;-66
2021/04/17 05:12:44;;;;;;;9.60;3.22;;;3.40;78.00;;;;;;5006552;28;20053;-66
2021/04/17 05:15:10;;;;;;;7.22;3.38;;;3.40;77.90;;;;;;5002170;28;20022;-68
2021/04/17 05:17:36;;;;;;;9.52;3.50;;;3.50;77.50;;;;;;5007568;28;20052;-67
2021/04/17 05:20:02;;;;;;;10.88;3.30;;;3.60;76.60;;;;;;5007382;28;20141;-67
2021/04/17 05:22:28;;;;;;;7.53;3.70;;;3.70;77.00;;;;;;5008050;28;20048;-66
2021/04/17 05:24:54;;;;;;;9.70;3.50;;;3.80;76.60;;;;;;5006915;28;20021;-66
2021/04/17 05:27:19;;;;;;;9.20;3.03;;;3.90;76.70;;;;;;5007105;28;20038;-67
2021/04/17 05:29:45;;;;;;;10.85;3.63;;;4.00;76.30;;;;;;5001893;28;20105;-71
2021/04/17 05:32:11;;;;;;;5.72;2.97;;;4.00;76.60;;;;;;5000812;28;20209;-68
2021/04/17 05:34:37;;;;;;;5.35;2.63;;;4.10;76.10;;;;;;5005139;28;20105;-67
2021/04/17 05:37:03;;;;;;;8.10;2.78;;;4.20;75.90;;;;;;5006470;28;20029;-68
2021/04/17 05:39:29;;;;;;;5.20;2.70;;;4.30;75.80;;;;;;5003533;28;20030;-67
2021/04/17 05:41:55;;;;;;;8.32;3.30;;;4.30;75.30;;;;;;5007854;28;20026;-66
2021/04/17 05:44:20;;;;;;;5.88;2.70;;;4.50;75.20;;;;;;5005972;28;20533;-67
2021/04/17 05:46:46;;;;;;;8.23;2.55;;;4.50;74.30;;;;;;5008133;28;20018;-67
2021/04/17 05:49:12;;;;;;;8.05;3.13;;;4.60;74.20;;;;;;5005169;28;20069;-67
2021/04/17 05:51:40;;;;;;;5.63;2.78;;;4.60;74.20;;;;;;5008150;28;20026;-66
2021/04/17 05:54:06;;;;;;;5.68;2.72;;;4.70;73.80;;;;;;4999137;28;20038;-67
2021/04/17 05:56:32;;;;;;;8.40;3.08;;;4.80;74.40;;;;;;5008853;28;20057;-67
2021/04/17 05:58:58;;;;;;;7.70;2.55;;;4.80;74.50;;;;;;5003468;28;20037;-66
2021/04/17 06:01:24;;;;;;;4.35;2.53;;;4.90;74.40;;;;;;5002471;28;20084;-66
2021/04/17 06:03:49;;;;;;;9.90;2.55;;;4.90;73.40;;;;;;5005189;28;20041;-67
2021/04/17 06:06:15;;;;;;;5.75;2.30;;;5.00;74.00;;;;;;5009170;28;20060;-68
2021/04/17 06:08:41;;;;;;;5.75;2.60;;;5.00;72.10;;;;;;5002904;28;20033;-66
2021/04/17 06:11:07;;;;;;;5.45;2.63;;;5.10;73.30;;;;;;4986601;28;20026;-66
2021/04/17 06:13:33;;;;;;;7.13;2.50;;;5.10;72.20;;;;;;4999012;28;20030;-66
2021/04/17 06:16:05;;;;;;;6.70;2.00;;;5.10;72.20;;;;;;4995428;28;20038;-66
2021/04/17 06:18:31;;;;;;;9.50;2.58;;;5.10;72.00;;;;;;5002118;28;20045;-67
2021/04/17 06:20:57;;;;;;;5.95;2.38;;;5.10;71.20;;;;;;5006173;28;20112;-67
2021/04/17 06:23:22;;;;;;;6.50;2.35;;;5.10;71.60;;;;;;5006733;28;20101;-69
2021/04/17 06:25:48;;;;;;;5.20;2.47;;;5.20;71.50;;;;;;5006143;28;20038;-67
2021/04/17 06:28:14;;;;;;;9.27;2.63;;;5.10;70.70;;;;;;5003100;28;20017;-67
2021/04/17 06:30:39;;;;;;;4.43;2.63;;;5.20;71.10;;;;;;5002122;28;20469;-68
2021/04/17 06:33:06;;;;;;;6.13;2.63;;;5.30;71.30;;;;;;5004768;28;20479;-67
2021/04/17 06:35:31;;;;;;;7.05;2.55;;;5.30;71.20;;;;;;5005169;28;20018;-67
2021/04/17 06:37:57;;;;;;;8.85;2.38;;;5.40;71.50;;;;;;4989663;28;20036;-68
2021/04/17 06:40:23;;;;;;;8.60;2.83;;;5.60;71.30;;;;;;5006500;28;20030;-68
2021/04/17 06:42:52;;;;;;;5.88;2.10;;;5.60;71.00;;;;;;5001355;28;20206;-67
2021/04/17 06:45:21;;;;;;;3.88;2.28;;;5.70;70.20;;;;;;5004826;28;20108;-68
2021/04/17 06:47:48;;;;;;;7.63;2.45;;;5.70;69.40;;;;;;5002800;28;20045;-68
2021/04/17 06:50:14;;;;;;;10.63;2.58;;;5.90;69.90;;;;;;4998687;28;20095;-68
2021/04/17 06:52:41;;;;;;;7.72;3.03;;;6.10;69.60;;;;;;5001917;28;20034;-68
2021/04/17 06:55:08;;;;;;;9.82;2.90;;;6.30;69.10;;;;;;5005623;28;20038;-68
2021/04/17 06:57:34;;;;;;;10.32;3.17;;;6.50;69.10;;;;;;5006498;28;20032;-68
2021/04/17 07:00:04;;;;;;;5.22;2.70;;;6.60;67.70;;;;;;5000294;28;20121;-68
2021/04/17 07:02:30;;;;;;;9.77;2.80;;;6.50;67.70;;;;;;5003983;28;20604;-67
2021/04/17 07:04:56;;;;;;;9.38;2.90;;;6.60;67.40;;;;;;5005236;28;20033;-68
2021/04/17 07:07:22;;;;;;;8.80;2.80;;;6.60;67.00;;;;;;4997318;28;20509;-68
2021/04/17 07:09:48;;;;;;;7.63;2.70;;;6.70;68.10;;;;;;5003043;28;20033;-70
2021/04/17 07:12:14;;;;;;;7.28;2.88;;;6.80;66.80;;;;;;5004505;28;20025;-71
2021/04/17 07:14:50;;;;;;;10.30;2.88;;;6.90;66.30;;;;;;4999744;28;20030;-70
2021/04/17 07:17:16;;;;;;;7.10;2.33;;;6.90;66.60;;;;;;5002941;28;20125;-70
2021/04/17 07:19:54;;;;;;;7.65;2.58;;;6.90;65.70;;;;;;5001107;28;20026;-70
2021/04/17 07:22:22;;;;;;;9.25;2.70;;;6.90;66.80;;;;;;4983046;28;20088;-69
2021/04/17 07:24:51;;;;;;;5.30;2.40;;;7.10;66.30;;;;;;5004577;28;20265;-70
2021/04/17 07:27:45;;;;;;;5.22;2.33;;;7.40;65.80;;;;;;4993283;28;20513;-70
2021/04/17 07:30:17;;;;;;;6.47;2.70;;;7.50;65.30;;;;;;4996264;28;20132;-70
2021/04/17 07:33:14;;;;;;;5.53;2.33;;;7.80;65.20;;;;;;5003412;28;20026;-70
2021/04/17 07:35:45;;;;;;;9.80;2.60;;;8.10;65.80;;;;;;4999703;28;20057;-70
2021/04/17 07:38:17;;;;;;;7.47;2.97;;;7.80;62.70;;;;;;5002891;28;20112;-71
2021/04/17 07:41:13;;;;;;;7.45;2.13;;;7.80;64.10;;;;;;5003601;28;20041;-69
2021/04/17 07:43:44;;;;;;;3.60;2.10;;;8.00;63.60;;;;;;4999236;28;20444;-71
2021/04/17 07:46:10;;;;;;;5.75;2.50;;;8.00;62.70;;;;;;4984742;28;20490;-70
2021/04/17 07:48:36;;;;;;;6.57;2.45;;;8.10;62.40;;;;;;5004209;28;20049;-70
2021/04/17 07:51:04;;;;;;;8.43;2.53;;;8.20;62.70;;;;;;4997247;28;20026;-70
2021/04/17 07:53:31;;;;;;;4.80;2.47;;;8.10;63.40;;;;;;4998892;28;20026;-70
2021/04/17 07:56:28;;;;;;;6.88;2.60;;;7.90;62.50;;;;;;4999188;28;20613;-71
2021/04/17 07:59:00;;;;;;;9.13;2.60;;;8.10;63.20;;;;;;4993337;28;20034;-71
2021/04/17 08:01:27;;;;;;;6.28;2.38;;;8.30;61.40;;;;;;4986541;28;20045;-69
2021/04/17 08:03:56;;;;;;;6.05;2.53;;;8.30;61.80;;;;;;4986524;28;20136;-70
2021/04/17 08:06:23;;;;;;;10.15;2.58;;;8.60;62.70;;;;;;4988309;28;20049;-71
2021/04/17 08:08:51;;;;;;;6.97;2.25;;;9.30;60.90;;;;;;4988434;28;20065;-70
2021/04/17 08:11:20;;;;;;;4.95;2.35;;;9.60;58.30;;;;;;4992128;28;20096;-70
2021/04/17 08:13:47;;;;;;;7.70;2.63;;;10.00;59.30;;;;;;4989535;28;20029;-71
2021/04/17 08:16:13;;;;;;;5.80;3.08;;;9.70;57.40;;;;;;4992141;28;22168;-69
2021/04/17 08:18:39;;;;;;;6.22;2.20;;;9.70;58.30;;;;;;4993635;28;20026;-69
2021/04/17 08:21:09;;;;;;;8.68;2.20;;;9.80;57.80;;;;;;4990164;28;20552;-71
2021/04/17 08:23:36;;;;;;;7.22;2.90;;;10.00;57.20;;;;;;4990925;28;20037;-70
2021/04/17 08:26:04;;;;;;;6.00;2.65;;;9.70;57.40;;;;;;4989916;28;20026;-71
2021/04/17 08:28:29;;;;;;;6.32;2.47;;;9.80;57.70;;;;;;4989894;28;20029;-71
2021/04/17 08:31:20;;;;;;;6.75;2.83;;;10.20;57.40;;;;;;4989785;28;20070;-69
2021/04/17 08:34:10;;;;;;;8.48;2.03;;;10.80;58.00;;;;;;4990999;28;22116;-70
2021/04/17 08:37:02;;;;;;;5.00;2.15;;;11.20;54.70;;;;;;4988710;28;20042;-69
2021/04/17 08:39:34;;;;;;;7.00;2.50;;;10.80;54.30;;;;;;4989849;28;20044;-71
2021/04/17 08:42:14;;;;;;;6.93;2.53;;;11.00;56.50;;;;;;4989478;28;20125;-69
2021/04/17 08:44:43;;;;;;;4.55;2.10;;;11.10;52.70;;;;;;4990665;28;20026;-70
2021/04/17 08:47:10;;;;;;;5.45;1.98;;;11.00;53.80;;;;;;4989532;28;20037;-71
2021/04/17 08:49:38;;;;;;;5.63;2.13;;;11.00;53.50;;;;;;4989182;28;20454;-70
2021/04/17 08:52:19;;;;;;;5.28;2.08;;;10.60;53.30;;;;;;4991179;28;20501;-71
2021/04/17 08:54:45;;;;;;;6.05;2.30;;;10.80;53.40;;;;;;4990522;28;20437;-70
2021/04/17 08:57:14;;;;;;;8.35;2.40;;;10.90;52.40;;;;;;4989269;28;20033;-70
2021/04/17 08:59:44;;;;;;;4.50;2.10;;;11.20;53.00;;;;;;4988690;28;20084;-71
2021/04/17 09:02:15;;;;;;;4.72;2.25;;;11.10;52.30;;;;;;4989320;28;20025;-70
2021/04/17 09:05:06;;;;;;;7.35;2.30;;;11.60;51.90;;;;;;5004097;28;20033;-70
2021/04/17 09:07:37;;;;;;;3.90;2.05;;;11.60;53.20;;;;;;5001058;28;20514;-70
2021/04/17 09:10:35;;;;;;;6.00;2.17;;;11.60;48.90;;;;;;5000449;28;20034;-71
2021/04/17 09:13:10;;;;;;;4.45;1.90;;;11.90;48.90;;;;;;5002087;28;20037;-71
2021/04/17 09:15:56;;;;;;;4.18;2.00;;;11.50;47.80;;;;;;5008142;28;20071;-71
2021/04/17 09:18:37;;;;;;;4.32;1.75;;;11.50;46.40;;;;;;5000039;28;20034;-71
2021/04/17 09:21:08;;;;;;;3.97;1.75;;;11.60;47.20;;;;;;5005417;28;20498;-70
2021/04/17 09:23:43;;;;;;;2.00;1.20;;;11.80;49.00;;;;;;5008254;28;20053;-71
2021/04/17 09:26:32;;;;;;;8.27;1.88;;;12.10;45.10;;;;;;5007004;28;20034;-71
2021/04/17 09:29:18;;;;;;;3.63;1.60;;;12.00;42.20;;;;;;5003871;28;20026;-71
2021/04/17 09:31:45;;;;;;;6.25;1.70;;;11.80;42.60;;;;;;5008318;28;20398;-71
2021/04/17 09:34:14;;;;;;;5.03;1.83;;;12.40;43.60;;;;;;5007935;28;20018;-71
2021/04/17 09:36:41;;;;;;;4.75;2.13;;;12.10;42.90;;;;;;5007891;28;20095;-72
2021/04/17 09:39:25;;;;;;;4.43;1.60;;;13.00;47.30;;;;;;5005637;28;20036;-71
2021/04/17 09:41:53;;;;;;;4.05;1.63;;;13.30;40.40;;;;;;5002061;28;20026;-71
2021/04/17 09:44:20;;;;;;;5.80;1.90;;;13.20;41.90;;;;;;5005446;28;20183;-71
2021/04/17 09:46:47;;;;;;;3.67;1.45;;;13.20;42.10;;;;;;5000171;28;20022;-72
2021/04/17 09:49:41;;;;;;;5.45;1.30;;;13.80;43.00;;;;;;5002042;28;20099;-71
2021/04/17 09:52:07;;;;;;;3.83;1.70;;;14.60;40.70;;;;;;5003435;28;20050;-70
2021/04/17 09:54:34;;;;;;;3.45;1.80;;;14.00;41.20;;;;;;5005426;28;20080;-71
2021/04/17 09:57:05;;;;;;;3.55;1.58;;;13.60;42.10;;;;;;5007659;28;20099;-71
2021/04/17 09:59:32;;;;;;;4.50;1.60;;;14.10;41.80;;;;;;5002666;28;20472;-71
2021/04/17 10:01:59;;;;;;;3.95;1.67;;;13.70;40.40;;;;;;5007902;28;20033;-72
2021/04/17 10:04:52;;;;;;;5.25;1.92;;;13.70;40.50;;;;;;5006633;28;20034;-70
2021/04/17 10:07:19;;;;;;;3.08;1.60;;;13.70;40.90;;;;;;5016624;28;20033;-71
2021/04/17 10:10:02;;;;;;;4.45;1.67;;;13.50;39.10;;;;;;4999863;28;20018;-71
2021/04/17 10:12:28;;;;;;;4.38;1.65;;;14.60;39.70;;;;;;5008095;28;20045;-71
2021/04/17 10:15:19;;;;;;;4.90;1.80;;;13.80;40.20;;;;;;5001977;28;20057;-71
2021/04/17 10:17:47;;;;;;;11.15;2.05;;;14.40;39.90;;;;;;5001721;28;20036;-71
2021/04/17 10:20:14;;;;;;;6.07;1.85;;;14.80;40.60;;;;;;5004495;28;20466;-71
2021/04/17 10:22:40;;;;;;;6.63;1.73;;;14.30;39.90;;;;;;5005116;28;20034;-72
2021/04/17 10:25:08;;;;;;;5.03;1.90;;;14.00;40.50;;;;;;5002555;28;20041;-71
2021/04/17 10:27:36;;;;;;;3.40;1.60;;;14.80;38.70;;;;;;5006300;28;20065;-71
2021/04/17 10:30:14;;;;;;;9.32;1.80;;;15.10;39.80;;;;;;5003531;28;20030;-72
2021/04/17 10:32:40;;;;;;;11.00;2.28;;;14.70;39.60;;;;;;5007261;28;20422;-71
2021/04/17 10:35:11;;;;;;;3.65;1.88;;;14.60;40.50;;;;;;5003501;28;20080;-70
2021/04/17 10:37:43;;;;;;;3.30;1.80;;;15.20;38.40;;;;;;5007109;28;20029;-70
2021/04/17 10:40:17;;;;;;;9.20;2.13;;;15.60;40.10;;;;;;5006344;28;20109;-70
2021/04/17 10:42:54;;;;;;;4.57;1.70;;;15.60;36.20;;;;;;5001570;28;20113;-70
2021/04/17 10:45:30;;;;;;;2.90;1.50;;;15.30;37.30;;;;;;5003052;28;20034;-70
2021/04/17 10:48:07;;;;;;;5.22;1.70;;;15.40;38.30;;;;;;5006488;28;20094;-70
2021/04/17 10:50:37;;;;;;;5.28;1.65;;;15.60;38.90;;;;;;5002984;28;20216;-70
2021/04/17 10:53:04;;;;;;;6.82;2.03;;;16.00;36.00;;;;;;5005411;28;20072;-71
2021/04/17 10:55:44;;;;;;;4.95;1.73;;;16.10;37.00;;;;;;5002625;28;20026;-70
2021/04/17 10:58:28;;;;;;;4.40;1.83;;;16.20;36.60;;;;;;4995566;28;20042;-70
2021/04/17 11:01:03;;;;;;;5.18;1.90;;;16.00;36.00;;;;;;5002445;28;20022;-70
2021/04/17 11:03:31;;;;;;;5.18;1.80;;;15.50;37.00;;;;;;5005619;28;20129;-70
2021/04/17 11:06:13;;;;;;;7.72;2.25;;;15.30;38.20;;;;;;5005634;28;20034;-71
2021/04/17 11:08:39;;;;;;;5.35;1.88;;;15.30;38.30;;;;;;5005549;28;20341;-71
2021/04/17 11:11:09;;;;;;;4.72;2.03;;;15.80;38.10;;;;;;5004034;28;20053;-70
2021/04/17 11:13:36;;;;;;;4.35;1.98;;;14.80;38.20;;;;;;4999751;28;20022;-69
2021/04/17 11:16:04;;;;;;;9.18;2.00;;;15.00;39.20;;;;;;4997579;28;20026;-69
2021/04/17 11:18:38;;;;;;;2.95;1.52;;;15.50;38.30;;;;;;4997691;28;20030;-70
2021/04/17 11:21:15;;;;;;;3.97;1.88;;;15.50;37.60;;;;;;5002190;28;20514;-70
2021/04/17 11:24:02;;;;;;;7.40;2.35;;;15.10;40.30;;;;;;5004953;28;20036;-70
2021/04/17 11:26:30;;;;;;;3.40;1.48;;;15.30;39.40;;;;;;4985733;28;20055;-71
2021/04/17 11:29:02;;;;;;;4.55;1.75;;;16.20;39.00;;;;;;4967110;28;20045;-70
2021/04/17 11:31:34;;;;;;;5.90;1.95;;;16.50;40.80;;;;;;5004089;28;20029;-71
2021/04/17 11:34:02;;;;;;;4.75;2.30;;;15.70;40.90;;;;;;5002629;28;20036;-71
2021/04/17 11:36:33;;;;;;;5.38;1.95;;;15.10;40.40;;;;;;5000560;28;20152;-71
2021/04/17 11:38:59;;;;;;;4.32;2.00;;;16.00;39.50;;;;;;5003138;28;20517;-70
2021/04/17 11:41:26;;;;;;;4.90;2.35;;;15.30;39.20;;;;;;5003038;28;20022;-71
2021/04/17 11:43:53;;;;;;;5.97;2.33;;;15.30;39.50;;;;;;4982716;28;20030;-70
2021/04/17 11:46:19;;;;;;;5.53;2.35;;;14.90;40.90;;;;;;5004155;28;20136;-73
2021/04/17 11:48:51;;;;;;;6.45;2.17;;;15.00;40.00;;;;;;5002542;28;20116;-71
2021/04/17 11:51:18;;;;;;;3.95;1.90;;;15.60;38.20;;;;;;5005399;28;20749;-69
2021/04/17 11:53:44;;;;;;;5.75;2.20;;;16.40;37.40;;;;;;5002895;28;20021;-71
2021/04/17 11:56:10;;;;;;;6.65;2.70;;;16.90;38.50;;;;;;5005147;28;20075;-72
2021/04/17 11:58:35;;;;;;;5.47;2.03;;;16.40;39.30;;;;;;5002182;28;20512;-69
2021/04/17 12:01:01;;;;;;;4.20;1.92;;;16.00;39.90;;;;;;4998419;28;20038;-70
2021/04/17 12:03:27;;;;;;;6.93;1.83;;;15.40;40.20;;;;;;4981623;28;20398;-70
2021/04/17 12:05:54;;;;;;;4.82;1.85;;;15.30;40.00;;;;;;4993921;28;20657;-70
2021/04/17 12:08:21;;;;;;;4.75;1.90;;;15.80;38.90;;;;;;5001689;28;20089;-72
2021/04/17 12:10:48;;;;;;;7.25;2.15;;;15.80;39.70;;;;;;5003874;28;20405;-70
2021/04/17 12:13:14;;;;;;;6.18;2.38;;;15.70;39.20;;;;;;5001325;28;20196;-70
2021/04/17 12:15:40;;;;;;;5.15;2.20;;;15.80;40.50;;;;;;5001771;28;20525;-70
2021/04/17 12:18:07;;;;;;;7.13;2.22;;;15.50;41.10;;;;;;4999777;28;20037;-70
2021/04/17 12:20:33;;;;;;;4.30;2.20;;;15.50;41.00;;;;;;5000830;28;20041;-71
2021/04/17 12:22:59;;;;;;;5.10;2.05;;;16.50;39.30;;;;;;5002213;28;20046;-71
2021/04/17 12:25:25;;;;;;;6.90;2.30;;;16.60;38.00;;;;;;5001781;28;20030;-71
2021/04/17 12:27:51;;;;;;;5.70;2.22;;;16.70;37.40;;;;;;5000499;28;20029;-71
2021/04/17 12:30:18;;;;;;;5.22;2.25;;;16.20;39.10;;;;;;4999972;28;20033;-71
2021/04/17 12:32:44;;;;;;;4.80;1.95;;;17.10;39.60;;;;;;5000015;28;20156;-71
2021/04/17 12:35:12;;;;;;;7.70;1.92;;;17.60;37.60;;;;;;5000043;28;20128;-71
2021/04/17 12:37:38;;;;;;;4.53;1.98;;;18.60;36.20;;;;;;5000389;28;20030;-70
2021/04/17 12:40:05;;;;;;;6.18;1.90;;;19.00;35.00;;;;;;5003773;28;20135;-71
2021/04/17 12:42:31;;;;;;;6.80;2.30;;;19.20;34.10;;;;;;5002624;28;20033;-70
2021/04/17 12:44:56;;;;;;;7.32;2.13;;;19.30;33.50;;;;;;5003171;28;20497;-72
2021/04/17 12:47:22;;;;;;;5.47;1.90;;;19.10;33.70;;;;;;5001567;28;20038;-72
2021/04/17 12:49:48;;;;;;;6.68;1.83;;;19.50;31.30;;;;;;5004132;28;20033;-72
2021/04/17 12:52:13;;;;;;;5.03;1.98;;;19.30;33.30;;;;;;5005458;28;20025;-72
2021/04/17 12:54:39;;;;;;;4.40;2.05;;;19.00;32.80;;;;;;5003425;28;20099;-71
2021/04/17 12:57:05;;;;;;;5.18;1.80;;;19.00;32.60;;;;;;5004360;28;20060;-71
2021/04/17 12:59:30;;;;;;;16.52;3.05;;;18.90;34.10;;;;;;5003307;28;20021;-70
2021/04/17 13:01:56;;;;;;;18.75;3.42;;;19.00;33.40;;;;;;5005843;28;20029;-71